Time;durP1;ratioP1;P1;durP2;ratioP2;P2;SDS_P1;SDS_P2;PMS_P1;PMS_P2;Temp;Humidity;BMP_temperature;BMP_pressure;BME280_temperature;BME280_humidity;BME280_pressure;Samples;Min_cycle;Max_cycle;Signal;HPM_P1;HPM_P2
2022/05/25 00:02:44;;;;;;;1.33;0.70;;;;;;;;;;8312605;28;20086;-59
2022/05/25 00:06:44;;;;;;;1.10;0.50;;;;;;;;;;8314475;28;20068;-59
2022/05/25 00:10:45;;;;;;;0.73;0.73;;;;;;;;;;8315715;28;20090;-58
2022/05/25 00:14:47;;;;;;;0.95;0.68;;;;;;;;;;8316433;28;20028;-58
2022/05/25 00:23:06;;;;;;;2.25;0.90;;;;;;;;;;8312234;28;20043;-59
2022/05/25 00:27:06;;;;;;;1.10;0.60;;;;;;;;;;8314596;28;20112;-59
2022/05/25 00:31:08;;;;;;;1.83;0.90;;;;;;;;;;8311820;28;20098;-58
2022/05/25 00:35:13;;;;;;;1.33;0.60;;;;;;;;;;8314345;28;20075;-58
2022/05/25 00:39:13;;;;;;;0.75;0.73;;;;;;;;;;8313948;28;20032;-58
2022/05/25 00:43:13;;;;;;;1.85;0.70;;;;;;;;;;8313190;28;20396;-59
2022/05/25 00:47:16;;;;;;;1.90;0.77;;;;;;;;;;8311150;28;20674;-58
2022/05/25 00:51:22;;;;;;;0.85;0.73;;;;;;;;;;8311939;28;20068;-58
2022/05/25 00:55:29;;;;;;;1.95;0.82;;;;;;;;;;8306236;28;20300;-58
2022/05/25 00:59:32;;;;;;;2.40;0.93;;;;;;;;;;8309686;28;20750;-58
2022/05/25 01:03:32;;;;;;;3.00;1.00;;;;;;;;;;8304289;28;20123;-58
2022/05/25 01:07:53;;;;;;;2.05;0.70;;;;;;;;;;8310340;28;20028;-58
2022/05/25 01:12:02;;;;;;;3.13;0.90;;;;;;;;;;8308307;28;20021;-58
2022/05/25 01:16:08;;;;;;;2.08;0.77;;;;;;;;;;8304309;28;20856;-58
2022/05/25 01:20:15;;;;;;;1.70;0.98;;;;;;;;;;8305094;28;20056;-58
2022/05/25 01:24:15;;;;;;;3.17;1.17;;;;;;;;;;8306368;28;20022;-58
2022/05/25 01:28:26;;;;;;;2.10;1.00;;;;;;;;;;8309786;28;20057;-58
2022/05/25 01:32:27;;;;;;;1.08;0.85;;;;;;;;;;8302535;28;20208;-58
2022/05/25 01:36:41;;;;;;;1.35;0.80;;;;;;;;;;8307574;28;20029;-59
2022/05/25 01:40:41;;;;;;;1.10;0.73;;;;;;;;;;8305484;28;20070;-58
2022/05/25 01:44:43;;;;;;;1.17;0.88;;;;;;;;;;8304945;28;20503;-58
2022/05/25 01:48:44;;;;;;;2.33;0.90;;;;;;;;;;8308568;28;20458;-58
2022/05/25 01:52:46;;;;;;;2.28;1.05;;;;;;;;;;8307334;28;20108;-58
2022/05/25 01:56:50;;;;;;;1.77;0.93;;;;;;;;;;8308822;28;20244;-57
2022/05/25 02:00:51;;;;;;;3.73;0.90;;;;;;;;;;8306237;28;20046;-57
2022/05/25 02:04:52;;;;;;;1.17;1.00;;;;;;;;;;8305660;28;20535;-58
2022/05/25 02:09:12;;;;;;;1.30;1.00;;;;;;;;;;8304833;28;20025;-58
2022/05/25 02:13:21;;;;;;;2.55;0.80;;;;;;;;;;8308381;28;20078;-58
2022/05/25 02:17:40;;;;;;;1.00;0.85;;;;;;;;;;8304148;28;20086;-58
2022/05/25 02:21:55;;;;;;;3.25;1.10;;;;;;;;;;8305151;28;20037;-58
2022/05/25 02:26:02;;;;;;;1.63;1.00;;;;;;;;;;8304283;28;20021;-58
2022/05/25 02:30:04;;;;;;;2.33;1.00;;;;;;;;;;8308478;28;20020;-58
2022/05/25 02:34:06;;;;;;;2.45;1.00;;;;;;;;;;8306035;28;20136;-58
2022/05/25 02:38:07;;;;;;;1.10;0.88;;;;;;;;;;8304398;28;20021;-60
2022/05/25 02:42:11;;;;;;;1.55;1.00;;;;;;;;;;8304400;28;20020;-58
2022/05/25 02:46:11;;;;;;;;;;;;;;;;;;8305131;28;20052;-58
2022/05/25 02:50:12;;;;;;;2.85;1.20;;;;;;;;;;8304894;28;19913;-58
2022/05/25 02:54:12;;;;;;;2.25;0.88;;;;;;;;;;8303561;28;20353;-57
2022/05/25 02:58:12;;;;;;;1.40;0.77;;;;;;;;;;8305872;28;20028;-58
2022/05/25 03:02:13;;;;;;;0.80;0.80;;;;;;;;;;8305560;28;20087;-57
2022/05/25 03:06:13;;;;;;;2.28;0.90;;;;;;;;;;8305273;28;20119;-57
2022/05/25 03:10:13;;;;;;;0.80;0.80;;;;;;;;;;8301810;28;20021;-57
2022/05/25 03:14:13;;;;;;;2.53;1.00;;;;;;;;;;8304228;28;20029;-57
2022/05/25 03:18:14;;;;;;;4.65;1.17;;;;;;;;;;8300586;28;20433;-57
2022/05/25 03:22:14;;;;;;;1.52;0.90;;;;;;;;;;8305348;28;20515;-57
2022/05/25 03:26:15;;;;;;;1.17;0.90;;;;;;;;;;8304607;28;20079;-57
2022/05/25 03:30:16;;;;;;;1.30;0.80;;;;;;;;;;8298822;28;20031;-57
2022/05/25 03:34:17;;;;;;;2.15;1.17;;;;;;;;;;8305232;28;20113;-57
2022/05/25 03:38:18;;;;;;;2.72;0.80;;;;;;;;;;8303828;28;20126;-57
2022/05/25 03:42:18;;;;;;;0.93;0.70;;;;;;;;;;8303138;28;20025;-57
2022/05/25 03:46:19;;;;;;;2.35;0.90;;;;;;;;;;8303306;28;20029;-58
2022/05/25 03:50:19;;;;;;;2.05;0.93;;;;;;;;;;8305167;28;20132;-57
2022/05/25 03:54:20;;;;;;;0.75;0.70;;;;;;;;;;8304052;28;20021;-57
2022/05/25 03:58:20;;;;;;;1.55;0.93;;;;;;;;;;8302311;28;20031;-57
2022/05/25 04:02:20;;;;;;;3.35;1.05;;;;;;;;;;8303763;28;20045;-57
2022/05/25 04:06:20;;;;;;;2.55;1.00;;;;;;;;;;8304177;28;20033;-57
2022/05/25 04:10:21;;;;;;;1.85;0.90;;;;;;;;;;8300668;28;20094;-58
2022/05/25 04:14:21;;;;;;;1.90;0.90;;;;;;;;;;8302547;28;20731;-56
2022/05/25 04:18:21;;;;;;;1.80;0.93;;;;;;;;;;8304488;28;20111;-57
2022/05/25 04:22:22;;;;;;;3.58;1.00;;;;;;;;;;8306939;28;20270;-57
2022/05/25 04:26:22;;;;;;;2.78;1.10;;;;;;;;;;8306908;28;20025;-58
2022/05/25 04:30:24;;;;;;;3.00;0.93;;;;;;;;;;8309199;28;20045;-57
2022/05/25 04:34:24;;;;;;;2.70;0.98;;;;;;;;;;8308684;28;20484;-57
2022/05/25 04:38:25;;;;;;;8.38;1.17;;;;;;;;;;8310816;28;20533;-57
2022/05/25 04:42:29;;;;;;;5.88;1.10;;;;;;;;;;8308935;28;20021;-58
2022/05/25 04:46:29;;;;;;;6.28;1.20;;;;;;;;;;8308136;28;20045;-58
2022/05/25 04:50:32;;;;;;;2.63;1.20;;;;;;;;;;8309586;28;20065;-57
2022/05/25 04:54:32;;;;;;;9.48;1.05;;;;;;;;;;8309720;28;20032;-59
2022/05/25 04:58:33;;;;;;;5.55;1.17;;;;;;;;;;8306912;28;20055;-58
2022/05/25 05:02:34;;;;;;;5.43;0.88;;;;;;;;;;8304932;28;20036;-58
2022/05/25 05:06:34;;;;;;;12.88;1.20;;;;;;;;;;8305895;28;20063;-58
2022/05/25 05:10:34;;;;;;;3.10;0.90;;;;;;;;;;8310238;28;20619;-60
2022/05/25 05:14:35;;;;;;;3.45;0.93;;;;;;;;;;8309543;28;20029;-59
2022/05/25 05:18:35;;;;;;;0.95;0.80;;;;;;;;;;8309138;28;20037;-58
2022/05/25 05:22:35;;;;;;;2.50;1.23;;;;;;;;;;8310562;28;20029;-59
2022/05/25 05:26:37;;;;;;;2.60;0.70;;;;;;;;;;8311308;28;20072;-59
2022/05/25 05:30:38;;;;;;;2.30;1.00;;;;;;;;;;8308823;28;20239;-59
2022/05/25 05:34:39;;;;;;;6.40;1.20;;;;;;;;;;8309507;28;20357;-59
2022/05/25 05:38:42;;;;;;;7.07;1.33;;;;;;;;;;8303472;28;20033;-58
2022/05/25 05:42:44;;;;;;;4.45;1.20;;;;;;;;;;8310022;28;20409;-59
2022/05/25 05:46:45;;;;;;;3.92;1.10;;;;;;;;;;8308288;28;20158;-59
2022/05/25 05:50:47;;;;;;;5.80;1.00;;;;;;;;;;8311738;28;20037;-59
2022/05/25 05:54:48;;;;;;;2.83;1.00;;;;;;;;;;8302425;28;20382;-59
2022/05/25 05:58:48;;;;;;;3.57;0.90;;;;;;;;;;8299361;28;20021;-59
2022/05/25 06:02:50;;;;;;;2.88;0.73;;;;;;;;;;8298518;28;20135;-59
2022/05/25 06:06:50;;;;;;;0.70;0.60;;;;;;;;;;8299682;28;20298;-59
2022/05/25 06:10:50;;;;;;;6.30;0.90;;;;;;;;;;8300973;28;20028;-59
2022/05/25 06:14:50;;;;;;;1.92;0.68;;;;;;;;;;8302591;28;20555;-59
2022/05/25 06:23:09;;;;;;;5.97;1.10;;;;;;;;;;8301732;28;20048;-59
2022/05/25 06:27:11;;;;;;;0.63;0.63;;;;;;;;;;8300179;28;20412;-60
2022/05/25 06:31:12;;;;;;;3.50;0.70;;;;;;;;;;8296482;28;20040;-59
2022/05/25 06:35:13;;;;;;;2.28;0.70;;;;;;;;;;8301451;28;20567;-60
2022/05/25 06:39:14;;;;;;;1.75;0.63;;;;;;;;;;8299564;28;20310;-59
2022/05/25 06:43:14;;;;;;;2.03;0.60;;;;;;;;;;8299626;28;20021;-59
2022/05/25 06:47:15;;;;;;;0.60;0.60;;;;;;;;;;8299505;28;20052;-60
2022/05/25 06:51:17;;;;;;;2.25;0.50;;;;;;;;;;8299504;28;20025;-60
2022/05/25 06:55:18;;;;;;;3.05;0.60;;;;;;;;;;8297810;28;20461;-60
2022/05/25 06:59:18;;;;;;;1.65;0.73;;;;;;;;;;8301367;28;20112;-59
2022/05/25 07:03:18;;;;;;;6.65;0.68;;;;;;;;;;8299622;28;20041;-60
2022/05/25 07:07:19;;;;;;;5.30;0.70;;;;;;;;;;8299815;28;20032;-60
2022/05/25 07:11:20;;;;;;;2.42;0.60;;;;;;;;;;8298607;28;20021;-60
2022/05/25 07:15:20;;;;;;;1.33;0.60;;;;;;;;;;8298401;28;20029;-60
2022/05/25 07:19:20;;;;;;;0.80;0.50;;;;;;;;;;8301478;28;20476;-60
2022/05/25 07:23:21;;;;;;;2.10;0.70;;;;;;;;;;8299692;28;20152;-59
2022/05/25 07:27:21;;;;;;;1.67;0.70;;;;;;;;;;8303078;28;20286;-59
2022/05/25 07:31:42;;;;;;;1.95;0.55;;;;;;;;;;8304731;28;20037;-59
2022/05/25 07:35:42;;;;;;;2.40;0.77;;;;;;;;;;8305492;28;20544;-60
2022/05/25 07:39:48;;;;;;;2.05;0.60;;;;;;;;;;8305837;28;20099;-59
2022/05/25 07:43:53;;;;;;;2.03;0.60;;;;;;;;;;8305209;28;20025;-60
2022/05/25 07:47:54;;;;;;;1.42;0.55;;;;;;;;;;8305449;28;20049;-60
2022/05/25 07:51:54;;;;;;;0.93;0.60;;;;;;;;;;8307695;28;20033;-59
2022/05/25 07:55:54;;;;;;;2.42;0.80;;;;;;;;;;8307032;28;20028;-60
2022/05/25 07:59:55;;;;;;;2.50;0.67;;;;;;;;;;8311155;28;20101;-60
2022/05/25 08:08:14;;;;;;;1.75;0.60;;;;;;;;;;8307950;28;20098;-59
2022/05/25 08:12:15;;;;;;;2.07;0.70;;;;;;;;;;8307472;28;20017;-59
2022/05/25 08:16:16;;;;;;;1.70;1.08;;;;;;;;;;8310751;28;20035;-59
2022/05/25 08:20:17;;;;;;;2.95;0.73;;;;;;;;;;8302659;28;20578;-60
2022/05/25 08:24:17;;;;;;;0.80;0.60;;;;;;;;;;8303153;28;20044;-60
2022/05/25 08:28:17;;;;;;;2.85;0.70;;;;;;;;;;8305383;28;20032;-60
2022/05/25 08:32:18;;;;;;;0.95;0.65;;;;;;;;;;8304975;28;20458;-60
2022/05/25 08:36:18;;;;;;;3.20;0.60;;;;;;;;;;8304023;28;20540;-60
2022/05/25 08:40:19;;;;;;;1.10;0.50;;;;;;;;;;8308841;28;20957;-60
2022/05/25 08:44:21;;;;;;;2.65;0.70;;;;;;;;;;8307017;28;20040;-60
2022/05/25 08:48:22;;;;;;;1.65;0.63;;;;;;;;;;8304693;28;20494;-60
2022/05/25 08:52:28;;;;;;;1.58;0.50;;;;;;;;;;8303214;28;20404;-61
2022/05/25 08:56:47;;;;;;;2.58;0.50;;;;;;;;;;8301050;28;20079;-60
2022/05/25 09:00:48;;;;;;;1.10;0.60;;;;;;;;;;8310585;28;21026;-60
2022/05/25 09:04:50;;;;;;;1.35;0.55;;;;;;;;;;8308553;28;20132;-60
2022/05/25 09:08:51;;;;;;;3.80;0.70;;;;;;;;;;8306735;28;20025;-60
2022/05/25 09:12:54;;;;;;;2.03;0.70;;;;;;;;;;8307565;28;20033;-60
2022/05/25 09:16:57;;;;;;;1.13;0.70;;;;;;;;;;8310954;28;20044;-60
2022/05/25 09:20:57;;;;;;;1.48;0.60;;;;;;;;;;8307800;28;20022;-60
2022/05/25 09:24:59;;;;;;;0.80;0.55;;;;;;;;;;8299661;28;20021;-60
2022/05/25 09:29:01;;;;;;;3.20;0.77;;;;;;;;;;8301504;28;20040;-60
2022/05/25 09:33:01;;;;;;;;;;;;;;;;;;8300536;28;20448;-60
2022/05/25 09:37:09;;;;;;;2.10;0.70;;;;;;;;;;8302652;28;19963;-60
2022/05/25 09:41:10;;;;;;;1.90;0.60;;;;;;;;;;8300720;28;20085;-60
2022/05/25 09:45:14;;;;;;;4.05;0.60;;;;;;;;;;8298647;28;20034;-60
2022/05/25 09:49:26;;;;;;;1.17;0.60;;;;;;;;;;8300352;28;20025;-60
2022/05/25 09:53:31;;;;;;;3.05;0.60;;;;;;;;;;8299100;28;20033;-60
2022/05/25 09:57:38;;;;;;;0.60;0.60;;;;;;;;;;8297535;28;20028;-60
2022/05/25 10:01:43;;;;;;;2.08;0.70;;;;;;;;;;8301994;28;20034;-60
2022/05/25 10:05:53;;;;;;;2.72;0.65;;;;;;;;;;8300996;28;20021;-60
2022/05/25 10:09:57;;;;;;;1.40;0.68;;;;;;;;;;8301039;28;20039;-60
2022/05/25 10:14:17;;;;;;;2.17;0.70;;;;;;;;;;8298915;28;20144;-60
2022/05/25 10:18:36;;;;;;;3.83;0.80;;;;;;;;;;8299810;28;20045;-59
2022/05/25 10:22:41;;;;;;;1.25;0.70;;;;;;;;;;8301256;28;20025;-60
2022/05/25 10:26:46;;;;;;;1.75;0.60;;;;;;;;;;8300441;28;20155;-60
2022/05/25 10:39:45;;;;;;;1.45;0.50;;;;;;;;;;8300623;28;20076;-60
2022/05/25 10:43:46;;;;;;;0.50;0.50;;;;;;;;;;8302328;28;20085;-60
2022/05/25 10:47:54;;;;;;;3.78;0.52;;;;;;;;;;8302294;28;20140;-60
2022/05/25 10:52:00;;;;;;;1.25;0.70;;;;;;;;;;8298863;28;20029;-60
2022/05/25 10:56:06;;;;;;;3.60;0.70;;;;;;;;;;8302343;28;20032;-59
2022/05/25 11:00:09;;;;;;;1.88;0.70;;;;;;;;;;8296780;28;20021;-60
2022/05/25 11:04:16;;;;;;;4.68;0.70;;;;;;;;;;8298601;28;20483;-60
2022/05/25 11:08:25;;;;;;;6.82;0.82;;;;;;;;;;8298044;28;20573;-60
2022/05/25 11:12:40;;;;;;;0.70;0.60;;;;;;;;;;8299081;28;20643;-60
2022/05/25 11:16:44;;;;;;;1.45;0.70;;;;;;;;;;8298743;28;20032;-59
2022/05/25 11:21:03;;;;;;;2.30;0.50;;;;;;;;;;8299118;28;20055;-60
2022/05/25 11:25:17;;;;;;;1.42;0.55;;;;;;;;;;8298537;28;20021;-59
2022/05/25 11:29:17;;;;;;;0.82;0.60;;;;;;;;;;8300609;28;20454;-60
2022/05/25 11:33:36;;;;;;;1.27;0.60;;;;;;;;;;8302216;28;20120;-60
2022/05/25 11:37:40;;;;;;;3.17;0.60;;;;;;;;;;8303197;28;20094;-60
2022/05/25 11:41:45;;;;;;;0.98;0.50;;;;;;;;;;8304113;28;20104;-60
2022/05/25 11:46:04;;;;;;;2.83;0.68;;;;;;;;;;8304919;28;20546;-59
2022/05/25 11:50:19;;;;;;;4.10;0.50;;;;;;;;;;8306674;28;20022;-60
2022/05/25 11:54:29;;;;;;;2.03;0.60;;;;;;;;;;8304657;28;20051;-60
2022/05/25 11:58:38;;;;;;;4.03;0.68;;;;;;;;;;8303718;28;20104;-60
2022/05/25 12:02:54;;;;;;;2.42;0.50;;;;;;;;;;8304150;28;20033;-60
2022/05/25 12:06:57;;;;;;;2.47;0.73;;;;;;;;;;8306525;28;20784;-60
2022/05/25 12:10:57;;;;;;;;;;;;;;;;;;8304833;28;20528;-59
2022/05/25 12:15:01;;;;;;;2.05;0.60;;;;;;;;;;8304222;28;19927;-60
2022/05/25 12:19:01;;;;;;;1.83;0.60;;;;;;;;;;8307110;28;20041;-59
2022/05/25 12:23:03;;;;;;;1.23;0.52;;;;;;;;;;8302940;28;20028;-59
2022/05/25 12:27:05;;;;;;;4.78;0.80;;;;;;;;;;8304109;28;20030;-60
2022/05/25 12:31:12;;;;;;;3.17;0.70;;;;;;;;;;8301461;28;20068;-60
2022/05/25 12:35:13;;;;;;;1.02;0.70;;;;;;;;;;8307552;28;20025;-60
2022/05/25 12:39:33;;;;;;;2.85;0.80;;;;;;;;;;8306519;28;20022;-60
2022/05/25 12:43:40;;;;;;;0.80;0.65;;;;;;;;;;8309625;28;20021;-60
2022/05/25 12:52:26;;;;;;;2.05;0.70;;;;;;;;;;8309645;28;20124;-59
2022/05/25 12:56:26;;;;;;;5.30;0.75;;;;;;;;;;8307504;28;20075;-60
2022/05/25 13:00:35;;;;;;;5.72;0.80;;;;;;;;;;8308366;28;20070;-59
2022/05/25 13:04:54;;;;;;;0.80;0.70;;;;;;;;;;8309293;28;20315;-61
2022/05/25 13:08:55;;;;;;;3.45;0.68;;;;;;;;;;8310640;28;20504;-60
2022/05/25 13:12:56;;;;;;;3.17;0.70;;;;;;;;;;8310527;28;20457;-59
2022/05/25 13:16:59;;;;;;;2.15;0.68;;;;;;;;;;8308668;28;22544;-59
2022/05/25 13:21:00;;;;;;;3.22;0.70;;;;;;;;;;8308429;28;20078;-59
2022/05/25 13:25:11;;;;;;;2.72;0.70;;;;;;;;;;8310743;28;20437;-60
2022/05/25 13:29:15;;;;;;;1.02;0.55;;;;;;;;;;8307506;28;20022;-59
2022/05/25 13:33:18;;;;;;;2.28;0.60;;;;;;;;;;8306323;28;20033;-60
2022/05/25 13:37:19;;;;;;;2.58;0.70;;;;;;;;;;8308106;28;20110;-60
2022/05/25 13:41:22;;;;;;;1.20;0.73;;;;;;;;;;8307347;28;20017;-60
2022/05/25 13:45:24;;;;;;;1.45;0.70;;;;;;;;;;8307986;28;20037;-59
2022/05/25 13:49:32;;;;;;;1.73;0.90;;;;;;;;;;8308217;28;20056;-60
2022/05/25 13:53:36;;;;;;;0.60;0.52;;;;;;;;;;8311128;28;20033;-59
2022/05/25 13:57:45;;;;;;;2.53;0.70;;;;;;;;;;8309855;28;20032;-60
2022/05/25 14:01:45;;;;;;;2.33;0.68;;;;;;;;;;8311821;28;20410;-60
2022/05/25 14:05:45;;;;;;;2.50;0.70;;;;;;;;;;8309677;28;20068;-60
2022/05/25 14:14:22;;;;;;;1.92;0.70;;;;;;;;;;8310097;28;20040;-60
2022/05/25 14:18:23;;;;;;;4.07;0.77;;;;;;;;;;8307937;28;20037;-60
2022/05/25 14:22:25;;;;;;;1.08;0.55;;;;;;;;;;8306149;28;20071;-60
2022/05/25 14:26:27;;;;;;;1.85;0.70;;;;;;;;;;8308960;28;20025;-60
2022/05/25 14:30:27;;;;;;;5.95;0.70;;;;;;;;;;8307640;28;20922;-60
2022/05/25 14:34:27;;;;;;;4.93;0.80;;;;;;;;;;8307975;28;20025;-59
2022/05/25 14:38:32;;;;;;;5.78;0.68;;;;;;;;;;8306951;28;20021;-60
2022/05/25 14:42:33;;;;;;;2.80;0.75;;;;;;;;;;8307642;28;20357;-60
2022/05/25 14:46:37;;;;;;;3.15;0.73;;;;;;;;;;8305525;28;20044;-60
2022/05/25 14:50:44;;;;;;;2.75;0.60;;;;;;;;;;8305177;28;20035;-60
2022/05/25 14:54:45;;;;;;;3.53;0.60;;;;;;;;;;8307582;28;20108;-60
2022/05/25 14:58:56;;;;;;;0.50;0.50;;;;;;;;;;8306491;28;20021;-60
2022/05/25 15:02:58;;;;;;;3.58;0.70;;;;;;;;;;8307593;28;21605;-60
2022/05/25 15:06:58;;;;;;;3.22;0.60;;;;;;;;;;8305005;28;20025;-60
2022/05/25 15:11:18;;;;;;;1.02;0.60;;;;;;;;;;8306573;28;20032;-60
2022/05/25 15:19:40;;;;;;;2.13;0.77;;;;;;;;;;8307635;28;20517;-60
2022/05/25 15:23:44;;;;;;;3.90;0.70;;;;;;;;;;8303915;28;20817;-60
2022/05/25 15:27:57;;;;;;;2.92;0.50;;;;;;;;;;8304266;28;20371;-60
2022/05/25 15:31:59;;;;;;;2.22;0.65;;;;;;;;;;8304229;28;20044;-59
2022/05/25 15:36:03;;;;;;;1.75;0.68;;;;;;;;;;8302078;28;20052;-59
2022/05/25 15:40:03;;;;;;;5.97;0.70;;;;;;;;;;8307222;28;20033;-60
2022/05/25 15:44:03;;;;;;;2.33;0.88;;;;;;;;;;8303154;28;20033;-59
2022/05/25 15:48:05;;;;;;;4.00;0.80;;;;;;;;;;8305441;28;20041;-59
2022/05/25 15:52:05;;;;;;;4.15;0.70;;;;;;;;;;8302042;28;20036;-59
2022/05/25 15:56:06;;;;;;;1.58;0.80;;;;;;;;;;8308871;28;20814;-59
2022/05/25 16:00:07;;;;;;;2.42;0.60;;;;;;;;;;8304197;28;20056;-59
2022/05/25 16:04:31;;;;;;;4.72;0.80;;;;;;;;;;8307369;28;20024;-59
2022/05/25 16:12:51;;;;;;;2.40;0.80;;;;;;;;;;8306644;28;20592;-60
2022/05/25 16:16:52;;;;;;;5.90;0.80;;;;;;;;;;8305808;28;20350;-59
2022/05/25 16:20:52;;;;;;;2.30;0.77;;;;;;;;;;8310450;28;20617;-59
2022/05/25 16:24:52;;;;;;;3.05;0.60;;;;;;;;;;8310730;28;20036;-59
2022/05/25 16:28:56;;;;;;;1.10;0.60;;;;;;;;;;8311021;28;20037;-60
2022/05/25 16:32:56;;;;;;;3.40;0.70;;;;;;;;;;8312358;28;21448;-59
2022/05/25 16:36:57;;;;;;;2.97;0.70;;;;;;;;;;8312618;28;20032;-59
2022/05/25 16:40:57;;;;;;;5.18;0.60;;;;;;;;;;8313159;28;20022;-59
2022/05/25 16:44:57;;;;;;;8.00;0.90;;;;;;;;;;8311897;28;20060;-59
2022/05/25 16:48:57;;;;;;;3.65;1.00;;;;;;;;;;8312046;28;20136;-59
2022/05/25 16:52:57;;;;;;;4.63;0.77;;;;;;;;;;8312770;28;20223;-60
2022/05/25 16:56:59;;;;;;;6.35;0.60;;;;;;;;;;8310065;28;20018;-59
2022/05/25 17:00:59;;;;;;;2.42;0.60;;;;;;;;;;8308963;28;20057;-59
2022/05/25 17:05:02;;;;;;;1.15;0.55;;;;;;;;;;8311147;28;20105;-59
2022/05/25 17:09:02;;;;;;;3.10;0.75;;;;;;;;;;8311978;28;20029;-59
2022/05/25 17:13:02;;;;;;;0.93;0.52;;;;;;;;;;8308658;28;20603;-59
2022/05/25 17:17:03;;;;;;;3.80;1.00;;;;;;;;;;8309794;28;20040;-58
2022/05/25 17:21:03;;;;;;;1.23;0.60;;;;;;;;;;8311793;28;20033;-59
2022/05/25 17:25:04;;;;;;;2.35;0.60;;;;;;;;;;8309933;28;20712;-59
2022/05/25 17:29:04;;;;;;;1.88;0.75;;;;;;;;;;8310511;28;20021;-59
2022/05/25 17:33:05;;;;;;;1.42;0.68;;;;;;;;;;8310671;28;20144;-59
2022/05/25 17:45:43;;;;;;;1.75;0.80;;;;;;;;;;8307314;28;20670;-59
2022/05/25 17:49:43;;;;;;;2.13;0.70;;;;;;;;;;8307287;28;20442;-59
2022/05/25 17:53:44;;;;;;;1.15;0.50;;;;;;;;;;8307785;28;20283;-59
2022/05/25 17:57:44;;;;;;;1.55;0.60;;;;;;;;;;8307779;28;20075;-59
2022/05/25 18:01:45;;;;;;;4.30;0.60;;;;;;;;;;8307951;28;20033;-59
2022/05/25 18:05:46;;;;;;;2.25;0.80;;;;;;;;;;8307436;28;20051;-60
2022/05/25 18:09:48;;;;;;;1.15;0.60;;;;;;;;;;8306370;28;20040;-59
2022/05/25 18:13:48;;;;;;;3.75;0.80;;;;;;;;;;8307582;28;20087;-59
2022/05/25 18:17:52;;;;;;;1.70;0.60;;;;;;;;;;8307843;28;20041;-59
2022/05/25 18:21:52;;;;;;;;;;;;;;;;;;8310019;28;20286;-59
2022/05/25 18:25:52;;;;;;;0.95;0.60;;;;;;;;;;8308065;28;19923;-60
2022/05/25 18:29:52;;;;;;;1.33;0.52;;;;;;;;;;8309787;28;20024;-60
2022/05/25 18:33:53;;;;;;;1.55;0.60;;;;;;;;;;8307190;28;20049;-59
2022/05/25 18:37:53;;;;;;;0.77;0.57;;;;;;;;;;8307143;28;20032;-59
2022/05/25 18:41:53;;;;;;;1.27;0.63;;;;;;;;;;8304230;28;20029;-59
2022/05/25 18:45:55;;;;;;;3.25;0.60;;;;;;;;;;8305552;28;20148;-59
2022/05/25 18:49:55;;;;;;;5.00;0.65;;;;;;;;;;8307003;28;20495;-59
2022/05/25 18:53:56;;;;;;;1.65;0.55;;;;;;;;;;8306377;28;20056;-59
2022/05/25 18:57:56;;;;;;;1.97;0.60;;;;;;;;;;8306842;28;20108;-59
2022/05/25 19:01:57;;;;;;;3.08;0.60;;;;;;;;;;8305371;28;20603;-60
2022/05/25 19:05:57;;;;;;;1.98;0.70;;;;;;;;;;8306104;28;20117;-59
2022/05/25 19:09:57;;;;;;;1.83;0.60;;;;;;;;;;8308292;28;20040;-59
2022/05/25 19:13:57;;;;;;;4.88;0.70;;;;;;;;;;8303645;28;20136;-59
2022/05/25 19:17:57;;;;;;;0.85;0.60;;;;;;;;;;8307277;28;20029;-59
2022/05/25 19:22:01;;;;;;;1.67;0.65;;;;;;;;;;8305434;28;20025;-58
2022/05/25 19:26:07;;;;;;;2.10;0.63;;;;;;;;;;8313170;28;20040;-58
2022/05/25 19:30:09;;;;;;;1.00;0.50;;;;;;;;;;8307328;28;20033;-58
2022/05/25 19:34:11;;;;;;;1.52;0.60;;;;;;;;;;8304895;28;20087;-58
2022/05/25 19:38:13;;;;;;;0.52;0.50;;;;;;;;;;8305854;28;20055;-58
2022/05/25 19:42:18;;;;;;;2.33;0.70;;;;;;;;;;8303052;28;20047;-58
2022/05/25 19:46:19;;;;;;;1.73;0.70;;;;;;;;;;8308514;28;20045;-59
2022/05/25 19:54:40;;;;;;;1.08;0.60;;;;;;;;;;8311575;28;20139;-58
2022/05/25 19:58:41;;;;;;;2.05;0.75;;;;;;;;;;8313424;28;20021;-58
2022/05/25 20:02:42;;;;;;;2.67;0.70;;;;;;;;;;8325203;28;20116;-59
2022/05/25 20:06:42;;;;;;;1.85;0.75;;;;;;;;;;8311703;28;20323;-58
2022/05/25 20:10:42;;;;;;;2.30;0.80;;;;;;;;;;8312204;28;20026;-58
2022/05/25 20:14:42;;;;;;;1.20;0.60;;;;;;;;;;8312385;28;20032;-58
2022/05/25 20:18:42;;;;;;;1.37;0.60;;;;;;;;;;8307866;28;20136;-59
2022/05/25 20:22:43;;;;;;;3.35;0.70;;;;;;;;;;8308998;28;20037;-59
2022/05/25 20:26:43;;;;;;;1.60;0.68;;;;;;;;;;8314866;28;20147;-59
2022/05/25 20:30:44;;;;;;;1.67;0.63;;;;;;;;;;8312906;28;20034;-58
2022/05/25 20:34:44;;;;;;;3.28;0.73;;;;;;;;;;8311619;28;20025;-59
2022/05/25 20:38:45;;;;;;;2.10;0.60;;;;;;;;;;8316123;28;20470;-59
2022/05/25 20:42:46;;;;;;;0.82;0.50;;;;;;;;;;8310463;28;20035;-58
2022/05/25 20:46:47;;;;;;;1.85;0.60;;;;;;;;;;8311275;28;20673;-59
2022/05/25 20:50:48;;;;;;;0.60;0.60;;;;;;;;;;8313425;28;20128;-58
2022/05/25 20:54:48;;;;;;;1.80;0.60;;;;;;;;;;8309047;28;20032;-58
2022/05/25 20:58:48;;;;;;;1.63;0.73;;;;;;;;;;8310502;28;20104;-58
2022/05/25 21:02:48;;;;;;;2.55;0.68;;;;;;;;;;8311231;28;20267;-58
2022/05/25 21:06:49;;;;;;;1.42;0.63;;;;;;;;;;8313757;28;20036;-58
2022/05/25 21:10:49;;;;;;;1.75;0.70;;;;;;;;;;8310685;28;20029;-58
2022/05/25 21:14:49;;;;;;;1.50;0.63;;;;;;;;;;8310270;28;20025;-58
2022/05/25 21:18:51;;;;;;;2.58;0.70;;;;;;;;;;8309956;28;20643;-60
2022/05/25 21:22:52;;;;;;;1.73;0.60;;;;;;;;;;8319315;28;20537;-60
2022/05/25 21:26:53;;;;;;;1.30;0.70;;;;;;;;;;8311748;28;20025;-60
2022/05/25 21:35:12;;;;;;;1.42;0.70;;;;;;;;;;8309795;28;20572;-59
2022/05/25 21:39:13;;;;;;;1.88;0.70;;;;;;;;;;8311530;28;20435;-59
2022/05/25 21:43:13;;;;;;;0.88;0.50;;;;;;;;;;8311991;28;20033;-59
2022/05/25 21:51:51;;;;;;;0.50;0.50;;;;;;;;;;8311366;28;20144;-59
2022/05/25 21:55:53;;;;;;;2.85;0.80;;;;;;;;;;8309129;28;20052;-59
2022/05/25 21:59:53;;;;;;;1.38;0.82;;;;;;;;;;8309689;28;20107;-60
2022/05/25 22:03:53;;;;;;;1.83;0.60;;;;;;;;;;8308436;28;20040;-59
2022/05/25 22:07:54;;;;;;;1.10;0.63;;;;;;;;;;8309542;28;20033;-59
2022/05/25 22:11:54;;;;;;;2.80;0.70;;;;;;;;;;8307767;28;20044;-59
2022/05/25 22:15:55;;;;;;;1.38;0.68;;;;;;;;;;8308648;28;20049;-59
2022/05/25 22:19:55;;;;;;;1.50;0.63;;;;;;;;;;8307675;28;20087;-60
2022/05/25 22:23:55;;;;;;;0.95;0.70;;;;;;;;;;8306976;28;20119;-59
2022/05/25 22:27:55;;;;;;;0.90;0.70;;;;;;;;;;8308130;28;20221;-59
2022/05/25 22:31:57;;;;;;;1.88;0.63;;;;;;;;;;8307958;28;20037;-59
2022/05/25 22:35:59;;;;;;;2.22;0.60;;;;;;;;;;8308781;28;20029;-59
2022/05/25 22:39:59;;;;;;;2.90;0.60;;;;;;;;;;8309508;28;20016;-60
2022/05/25 22:43:59;;;;;;;2.50;0.70;;;;;;;;;;8306076;28;20830;-58
2022/05/25 22:47:59;;;;;;;1.15;0.52;;;;;;;;;;8308481;28;20375;-59
2022/05/25 22:51:59;;;;;;;3.70;0.70;;;;;;;;;;8305773;28;20056;-59
2022/05/25 22:56:00;;;;;;;0.70;0.50;;;;;;;;;;8308142;28;20036;-59
2022/05/25 23:00:00;;;;;;;1.25;0.80;;;;;;;;;;8308829;28;20021;-59
2022/05/25 23:04:01;;;;;;;0.60;0.60;;;;;;;;;;8307390;28;20036;-59
2022/05/25 23:08:02;;;;;;;1.95;0.60;;;;;;;;;;8309502;28;20911;-59
2022/05/25 23:12:04;;;;;;;3.15;0.73;;;;;;;;;;8309301;28;20025;-59
2022/05/25 23:16:05;;;;;;;1.00;0.52;;;;;;;;;;8307610;28;20049;-59
2022/05/25 23:20:06;;;;;;;1.95;0.70;;;;;;;;;;8310729;28;20029;-59
2022/05/25 23:25:00;;;;;;;1.20;0.70;;;;;;;;;;8309311;28;20842;-60
2022/05/25 23:32:45;;;;;;;2.28;0.60;;;;;;;;;;8306435;28;20123;-60
2022/05/25 23:36:46;;;;;;;0.70;0.68;;;;;;;;;;8305345;28;20026;-59
2022/05/25 23:45:05;;;;;;;1.40;0.60;;;;;;;;;;8308029;28;20291;-60
2022/05/25 23:49:05;;;;;;;3.20;0.60;;;;;;;;;;8307147;28;20018;-58
2022/05/25 23:53:05;;;;;;;0.70;0.50;;;;;;;;;;8307376;28;20021;-58
2022/05/25 23:57:05;;;;;;;0.98;0.50;;;;;;;;;;8308426;28;20029;-59
